createdAt,value
2022-09-23T00:04:33.145Z,6.85
2022-09-23T00:09:35.035Z,6.95
2022-09-23T00:14:38.987Z,6.93
2022-09-23T00:19:40.666Z,6.72
2022-09-23T00:24:42.588Z,6.47
2022-09-23T00:29:44.329Z,7.55
2022-09-23T00:34:46.863Z,8.05
2022-09-23T00:39:48.783Z,7.55
2022-09-23T00:44:57.151Z,9.00
2022-09-23T00:50:03.342Z,6.70
2022-09-23T00:55:13.137Z,7.70
2022-09-23T01:00:15.230Z,7.45
2022-09-23T01:05:17.736Z,8.23
2022-09-23T01:10:19.751Z,7.65
2022-09-23T01:15:32.608Z,8.15
2022-09-23T01:20:52.681Z,8.02
2022-09-23T01:26:09.770Z,8.10
2022-09-23T01:31:26.067Z,8.10
2022-09-23T01:36:47.405Z,8.50
2022-09-23T01:42:01.210Z,8.30
2022-09-23T01:47:10.891Z,9.35
2022-09-23T01:52:22.847Z,9.82
2022-09-23T01:57:39.362Z,8.88
2022-09-23T02:03:00.165Z,9.13
2022-09-23T02:08:09.146Z,9.73
2022-09-23T02:13:22.351Z,9.45
2022-09-23T02:18:34.079Z,10.32
2022-09-23T02:23:44.261Z,9.40
2022-09-23T02:28:56.917Z,9.55
2022-09-23T02:34:34.872Z,10.00
2022-09-23T02:39:45.181Z,10.20
2022-09-23T02:44:46.815Z,10.02
2022-09-23T02:49:49.478Z,10.70
2022-09-23T02:54:52.396Z,10.43
2022-09-23T02:59:54.150Z,10.13
2022-09-23T03:05:23.881Z,11.70
2022-09-23T03:10:37.650Z,9.63
2022-09-23T03:16:20.787Z,10.02
2022-09-23T03:21:26.962Z,9.88
2022-09-23T03:26:32.871Z,10.23
2022-09-23T03:31:36.960Z,11.00
2022-09-23T03:37:11.249Z,10.95
2022-09-23T03:42:23.589Z,10.23
2022-09-23T03:47:27.244Z,9.63
2022-09-23T03:52:29.053Z,10.30
2022-09-23T03:57:31.977Z,9.40
2022-09-23T04:02:34.169Z,10.43
2022-09-23T04:07:35.897Z,10.20
2022-09-23T04:12:37.898Z,10.35
2022-09-23T04:17:39.709Z,10.55
2022-09-23T04:22:43.003Z,10.35
2022-09-23T04:27:44.660Z,12.60
2022-09-23T04:32:46.391Z,9.68
2022-09-23T04:37:48.735Z,10.63
2022-09-23T04:42:50.492Z,9.95
2022-09-23T04:47:52.433Z,9.80
2022-09-23T04:52:55.273Z,9.40
2022-09-23T04:57:58.037Z,8.75
2022-09-23T05:02:59.814Z,9.48
2022-09-23T05:08:01.723Z,10.20
2022-09-23T05:13:03.415Z,9.07
2022-09-23T05:18:05.252Z,9.52
2022-09-23T05:23:07.050Z,8.93
2022-09-23T05:28:09.398Z,9.45
2022-09-23T05:33:11.632Z,9.70
2022-09-23T05:38:16.406Z,10.05
2022-09-23T05:43:18.235Z,10.05
2022-09-23T05:48:19.885Z,9.50
2022-09-23T05:53:21.871Z,9.73
2022-09-23T05:58:24.258Z,10.63
2022-09-23T06:03:26.333Z,8.57
2022-09-23T06:08:28.185Z,9.73
2022-09-23T06:13:29.785Z,8.68
2022-09-23T06:18:32.477Z,9.38
2022-09-23T06:23:36.446Z,8.32
2022-09-23T06:28:41.520Z,8.88
2022-09-23T06:33:44.986Z,8.68
2022-09-23T06:38:49.369Z,8.20
2022-09-23T06:43:50.987Z,8.93
2022-09-23T06:48:52.626Z,10.32
2022-09-23T06:53:55.615Z,9.30
2022-09-23T06:58:57.247Z,9.05
2022-09-23T07:03:59.843Z,9.48
2022-09-23T07:09:01.544Z,9.57
2022-09-23T07:14:03.417Z,10.45
2022-09-23T07:19:05.487Z,10.18
2022-09-23T07:24:07.541Z,9.82
2022-09-23T07:29:13.587Z,9.80
2022-09-23T07:34:15.370Z,10.10
2022-09-23T07:39:17.045Z,10.25
2022-09-23T07:44:19.165Z,9.52
2022-09-23T07:49:20.933Z,9.98
2022-09-23T07:54:25.435Z,9.10
2022-09-23T07:59:27.517Z,10.43
2022-09-23T08:04:31.514Z,9.20
2022-09-23T08:09:45.435Z,9.85
2022-09-23T08:14:47.195Z,9.93
2022-09-23T08:19:49.062Z,9.15
2022-09-23T08:24:52.404Z,9.20
2022-09-23T08:29:57.201Z,9.18
2022-09-23T08:34:59.959Z,10.13
2022-09-23T08:40:02.391Z,9.88
2022-09-23T08:45:07.970Z,10.43
2022-09-23T08:50:47.373Z,10.18
2022-09-23T08:55:53.827Z,10.18
2022-09-23T09:01:08.604Z,8.55
2022-09-23T09:06:20.461Z,8.60
2022-09-23T09:11:31.274Z,9.27
2022-09-23T09:17:00.080Z,8.02
2022-09-23T09:22:09.314Z,8.30
2022-09-23T09:27:12.674Z,9.05
2022-09-23T09:32:33.732Z,9.00
2022-09-23T09:37:46.968Z,8.43
2022-09-23T09:42:50.274Z,9.40
2022-09-23T09:47:56.715Z,10.82
2022-09-23T09:53:14.974Z,11.00
2022-09-23T09:58:17.499Z,9.13
2022-09-23T10:03:33.093Z,8.75
2022-09-23T10:08:38.001Z,7.90
2022-09-23T10:13:39.777Z,9.32
2022-09-23T10:18:47.520Z,9.57
2022-09-23T10:23:52.662Z,8.85
2022-09-23T10:28:55.613Z,8.73
2022-09-23T10:34:00.427Z,9.02
2022-09-23T10:39:23.503Z,9.27
2022-09-23T10:44:57.563Z,9.00
2022-09-23T10:50:33.155Z,8.98
2022-09-23T10:55:48.416Z,9.27
2022-09-23T11:01:25.467Z,10.57
2022-09-23T11:06:54.992Z,8.73
2022-09-23T11:12:24.485Z,8.27
2022-09-23T11:17:36.618Z,8.52
2022-09-23T11:23:00.024Z,8.38
2022-09-23T11:28:31.584Z,7.97
2022-09-23T11:34:01.659Z,11.00
2022-09-23T11:39:13.025Z,8.32
2022-09-23T11:44:39.656Z,7.78
2022-09-23T11:49:51.146Z,8.57
2022-09-23T11:55:11.746Z,9.27
2022-09-23T12:00:19.032Z,9.40
2022-09-23T12:05:24.315Z,6.45
2022-09-23T12:10:48.471Z,7.65
2022-09-23T12:16:04.591Z,6.78
2022-09-23T12:21:45.792Z,7.30
2022-09-23T12:26:43.565Z,6.78
2022-09-23T12:31:46.879Z,6.95
2022-09-23T12:36:49.271Z,5.80
2022-09-23T12:41:58.684Z,8.38
2022-09-23T12:47:20.968Z,5.95
2022-09-23T12:52:27.113Z,6.43
2022-09-23T12:57:34.914Z,5.93
2022-09-23T13:02:40.906Z,5.88
2022-09-23T13:07:47.245Z,5.97
2022-09-23T13:12:49.924Z,6.60
2022-09-23T13:17:51.645Z,6.05
2022-09-23T13:22:53.324Z,5.72
2022-09-23T13:27:57.749Z,4.80
2022-09-23T13:33:16.671Z,4.10
2022-09-23T13:38:26.856Z,4.80
2022-09-23T13:43:36.535Z,4.63
2022-09-23T13:48:44.783Z,4.60
2022-09-23T13:53:55.292Z,5.07
2022-09-23T13:59:27.970Z,5.65
2022-09-23T14:04:29.600Z,5.35
2022-09-23T14:09:31.844Z,7.05
2022-09-23T14:14:37.132Z,5.85
2022-09-23T14:19:39.019Z,4.72
2022-09-23T14:24:40.865Z,6.03
2022-09-23T14:29:44.874Z,4.82
2022-09-23T14:35:05.177Z,5.60
2022-09-23T14:40:36.171Z,5.68
2022-09-23T14:45:40.235Z,5.78
2022-09-23T14:50:57.304Z,7.15
2022-09-23T14:56:07.941Z,5.60
2022-09-23T15:01:39.261Z,5.95
2022-09-23T15:06:47.956Z,6.30
2022-09-23T15:11:56.462Z,6.13
2022-09-23T15:17:00.166Z,6.25
2022-09-23T15:22:02.427Z,6.85
2022-09-23T15:27:11.489Z,5.53
2022-09-23T15:32:13.183Z,5.93
2022-09-23T15:37:14.864Z,6.93
2022-09-23T15:42:18.310Z,6.75
2022-09-23T15:47:22.597Z,6.55
2022-09-23T15:52:24.377Z,6.30
2022-09-23T15:57:26.162Z,5.72
2022-09-23T16:02:29.019Z,6.57
2022-09-23T16:07:30.839Z,6.30
2022-09-23T16:12:32.646Z,7.28
2022-09-23T16:17:34.524Z,6.72
2022-09-23T16:22:39.949Z,8.05
2022-09-23T16:27:41.793Z,7.45
2022-09-23T16:32:43.490Z,8.27
2022-09-23T16:37:47.144Z,9.10
2022-09-23T16:42:49.958Z,8.70
2022-09-23T16:47:52.203Z,8.68
2022-09-23T16:52:56.290Z,9.38
2022-09-23T16:57:57.954Z,8.15
2022-09-23T17:03:18.934Z,9.73
2022-09-23T17:08:21.737Z,8.63
2022-09-23T17:13:25.705Z,9.73
2022-09-23T17:18:30.228Z,10.00
2022-09-23T17:23:34.449Z,10.13
2022-09-23T17:28:36.727Z,10.82
2022-09-23T17:33:39.373Z,10.98
2022-09-23T17:38:45.377Z,12.27
2022-09-23T17:43:47.217Z,11.25
2022-09-23T17:48:55.640Z,12.70
2022-09-23T17:53:57.846Z,11.05
2022-09-23T17:59:01.927Z,12.90
2022-09-23T18:04:07.746Z,12.30
2022-09-23T18:09:10.516Z,13.32
2022-09-23T18:14:24.116Z,12.50
2022-09-23T18:19:28.022Z,13.32
2022-09-23T18:24:34.140Z,13.68
2022-09-23T18:34:39.691Z,15.55
2022-09-23T18:39:41.359Z,14.95
2022-09-23T18:44:44.185Z,15.18
2022-09-23T18:50:04.717Z,15.88
2022-09-23T18:55:08.284Z,16.50
2022-09-23T19:00:12.050Z,17.63
2022-09-23T19:05:16.784Z,18.85
2022-09-23T19:10:19.220Z,19.33
2022-09-23T19:15:23.053Z,17.30
2022-09-23T19:20:25.913Z,17.52
2022-09-23T19:25:27.634Z,17.40
2022-09-23T19:30:29.284Z,18.55
2022-09-23T19:35:33.258Z,17.48
2022-09-23T19:40:37.151Z,16.58
2022-09-23T19:45:39.083Z,16.90
2022-09-23T19:50:41.636Z,17.65
2022-09-23T19:55:44.352Z,17.60
2022-09-23T20:00:46.246Z,18.35
2022-09-23T20:05:57.507Z,19.42
2022-09-23T20:10:59.135Z,19.35
2022-09-23T20:16:01.181Z,20.02
2022-09-23T20:21:03.847Z,17.75
2022-09-23T20:26:25.124Z,16.52
2022-09-23T20:31:28.674Z,18.02
2022-09-23T20:36:30.345Z,18.63
2022-09-23T20:41:36.751Z,17.17
2022-09-23T20:46:38.911Z,17.25
2022-09-23T20:51:40.977Z,18.17
2022-09-23T20:56:42.646Z,18.88
2022-09-23T21:01:44.435Z,16.85
2022-09-23T21:06:46.101Z,17.30
2022-09-23T21:11:47.796Z,19.10
2022-09-23T21:16:50.560Z,19.02
2022-09-23T21:21:52.325Z,19.42
2022-09-23T21:26:53.996Z,21.60
2022-09-23T21:31:55.744Z,18.55
2022-09-23T21:36:57.847Z,21.33
2022-09-23T21:41:59.472Z,19.48
2022-09-23T21:47:01.192Z,23.20
2022-09-23T21:52:03.281Z,21.20
2022-09-23T21:57:05.053Z,20.30
2022-09-23T22:02:06.828Z,21.13
2022-09-23T22:07:08.461Z,20.05
2022-09-23T22:12:12.812Z,20.52
2022-09-23T22:17:15.708Z,21.58
2022-09-23T22:22:18.507Z,22.77
2022-09-23T22:27:20.523Z,23.13
2022-09-23T22:32:34.277Z,21.20
2022-09-23T22:37:36.841Z,23.65
2022-09-23T22:42:39.378Z,23.58
2022-09-23T22:47:45.266Z,22.38
2022-09-23T22:52:47.588Z,24.23
2022-09-23T22:57:50.672Z,24.48
2022-09-23T23:02:52.407Z,24.55
2022-09-23T23:07:54.077Z,24.33
2022-09-23T23:12:56.752Z,24.25
2022-09-23T23:17:59.222Z,24.08
2022-09-23T23:23:02.324Z,25.58
2022-09-23T23:28:05.757Z,23.95
2022-09-23T23:33:07.405Z,24.25
2022-09-23T23:38:12.472Z,23.83
2022-09-23T23:43:14.835Z,23.05
2022-09-23T23:48:16.458Z,24.00
2022-09-23T23:53:19.250Z,24.05
2022-09-23T23:58:21.090Z,24.08
